sensor_id;sensor_type;location;lat;lon;timestamp;temperature;humidity
51021;DHT22;38907;45.562;8.856;2023-05-29T00:02:37;19.10;99.90
51021;DHT22;38907;45.562;8.856;2023-05-29T00:07:39;19.10;99.90
51021;DHT22;38907;45.562;8.856;2023-05-29T00:12:42;19.10;99.90
51021;DHT22;38907;45.562;8.856;2023-05-29T00:17:44;19.00;99.90
51021;DHT22;38907;45.562;8.856;2023-05-29T00:22:47;18.90;99.90
51021;DHT22;38907;45.562;8.856;2023-05-29T00:27:50;19.00;99.90
51021;DHT22;38907;45.562;8.856;2023-05-29T00:32:52;19.00;99.90
51021;DHT22;38907;45.562;8.856;2023-05-29T00:37:54;19.00;99.90
51021;DHT22;38907;45.562;8.856;2023-05-29T00:42:57;18.90;99.90
51021;DHT22;38907;45.562;8.856;2023-05-29T00:47:59;18.80;99.90
51021;DHT22;38907;45.562;8.856;2023-05-29T00:53:01;18.80;99.90
51021;DHT22;38907;45.562;8.856;2023-05-29T00:58:06;18.80;99.90
51021;DHT22;38907;45.562;8.856;2023-05-29T01:03:08;18.80;99.90
51021;DHT22;38907;45.562;8.856;2023-05-29T01:08:11;18.80;99.90
51021;DHT22;38907;45.562;8.856;2023-05-29T01:13:18;18.70;99.90
51021;DHT22;38907;45.562;8.856;2023-05-29T01:18:30;18.60;99.90
51021;DHT22;38907;45.562;8.856;2023-05-29T01:23:51;18.60;99.90
51021;DHT22;38907;45.562;8.856;2023-05-29T01:28:57;18.40;99.90
51021;DHT22;38907;45.562;8.856;2023-05-29T01:34:01;18.20;99.90
51021;DHT22;38907;45.562;8.856;2023-05-29T01:39:04;18.20;99.90
51021;DHT22;38907;45.562;8.856;2023-05-29T01:44:09;18.10;99.90
51021;DHT22;38907;45.562;8.856;2023-05-29T01:49:12;18.10;99.90
51021;DHT22;38907;45.562;8.856;2023-05-29T01:54:14;18.10;99.90
51021;DHT22;38907;45.562;8.856;2023-05-29T01:59:18;18.00;99.90
51021;DHT22;38907;45.562;8.856;2023-05-29T02:04:21;18.10;99.90
51021;DHT22;38907;45.562;8.856;2023-05-29T02:09:22;18.00;99.90
51021;DHT22;38907;45.562;8.856;2023-05-29T02:14:27;17.90;99.90
51021;DHT22;38907;45.562;8.856;2023-05-29T02:19:29;17.90;99.90
51021;DHT22;38907;45.562;8.856;2023-05-29T02:24:31;17.90;99.90
51021;DHT22;38907;45.562;8.856;2023-05-29T02:29:34;18.00;99.90
51021;DHT22;38907;45.562;8.856;2023-05-29T02:34:36;18.10;99.90
51021;DHT22;38907;45.562;8.856;2023-05-29T02:39:38;18.10;99.90
51021;DHT22;38907;45.562;8.856;2023-05-29T02:44:42;18.10;99.90
51021;DHT22;38907;45.562;8.856;2023-05-29T02:49:43;18.10;99.90
51021;DHT22;38907;45.562;8.856;2023-05-29T02:54:45;18.20;99.90
51021;DHT22;38907;45.562;8.856;2023-05-29T02:59:49;18.10;99.90
51021;DHT22;38907;45.562;8.856;2023-05-29T03:04:51;18.20;99.90
51021;DHT22;38907;45.562;8.856;2023-05-29T03:09:54;18.10;99.90
51021;DHT22;38907;45.562;8.856;2023-05-29T03:14:58;18.10;99.90
51021;DHT22;38907;45.562;8.856;2023-05-29T03:20:00;18.10;99.90
51021;DHT22;38907;45.562;8.856;2023-05-29T03:25:07;18.20;99.90
51021;DHT22;38907;45.562;8.856;2023-05-29T03:30:11;18.20;99.90
51021;DHT22;38907;45.562;8.856;2023-05-29T03:35:13;18.30;99.90
51021;DHT22;38907;45.562;8.856;2023-05-29T03:40:15;18.40;99.90
51021;DHT22;38907;45.562;8.856;2023-05-29T03:45:19;18.40;99.90
51021;DHT22;38907;45.562;8.856;2023-05-29T03:50:20;18.30;99.90
51021;DHT22;38907;45.562;8.856;2023-05-29T03:55:22;18.10;99.90
51021;DHT22;38907;45.562;8.856;2023-05-29T04:00:26;18.30;99.90
51021;DHT22;38907;45.562;8.856;2023-05-29T04:05:27;18.20;99.90
51021;DHT22;38907;45.562;8.856;2023-05-29T04:10:29;18.20;99.90
51021;DHT22;38907;45.562;8.856;2023-05-29T04:15:35;18.30;99.90
51021;DHT22;38907;45.562;8.856;2023-05-29T04:20:37;18.30;99.90
51021;DHT22;38907;45.562;8.856;2023-05-29T04:25:39;18.40;99.90
51021;DHT22;38907;45.562;8.856;2023-05-29T04:30:43;18.30;99.90
51021;DHT22;38907;45.562;8.856;2023-05-29T04:35:45;18.30;99.90
51021;DHT22;38907;45.562;8.856;2023-05-29T04:40:49;18.10;99.90
51021;DHT22;38907;45.562;8.856;2023-05-29T04:45:52;18.10;99.90
51021;DHT22;38907;45.562;8.856;2023-05-29T04:50:54;18.30;99.90
51021;DHT22;38907;45.562;8.856;2023-05-29T04:55:57;18.20;99.90
51021;DHT22;38907;45.562;8.856;2023-05-29T05:01:00;18.10;99.90
51021;DHT22;38907;45.562;8.856;2023-05-29T05:06:03;17.90;99.90
51021;DHT22;38907;45.562;8.856;2023-05-29T05:11:07;17.80;99.90
51021;DHT22;38907;45.562;8.856;2023-05-29T05:16:11;18.00;99.90
51021;DHT22;38907;45.562;8.856;2023-05-29T05:21:12;17.90;99.90
51021;DHT22;38907;45.562;8.856;2023-05-29T05:26:14;17.80;99.90
51021;DHT22;38907;45.562;8.856;2023-05-29T05:31:18;18.00;99.90
51021;DHT22;38907;45.562;8.856;2023-05-29T05:36:20;18.00;99.90
51021;DHT22;38907;45.562;8.856;2023-05-29T05:41:22;18.00;99.90
51021;DHT22;38907;45.562;8.856;2023-05-29T05:46:25;18.00;99.90
51021;DHT22;38907;45.562;8.856;2023-05-29T05:51:27;18.00;99.90
51021;DHT22;38907;45.562;8.856;2023-05-29T05:56:29;17.90;99.90
51021;DHT22;38907;45.562;8.856;2023-05-29T06:01:32;17.70;99.90
51021;DHT22;38907;45.562;8.856;2023-05-29T06:06:34;17.70;99.90
51021;DHT22;38907;45.562;8.856;2023-05-29T06:11:36;17.60;99.90
51021;DHT22;38907;45.562;8.856;2023-05-29T06:16:39;17.40;99.90
51021;DHT22;38907;45.562;8.856;2023-05-29T06:21:41;17.30;99.90
51021;DHT22;38907;45.562;8.856;2023-05-29T06:26:43;17.30;99.90
51021;DHT22;38907;45.562;8.856;2023-05-29T06:31:46;17.20;99.90
51021;DHT22;38907;45.562;8.856;2023-05-29T06:36:48;17.10;99.90
51021;DHT22;38907;45.562;8.856;2023-05-29T06:41:50;17.20;99.90
51021;DHT22;38907;45.562;8.856;2023-05-29T06:46:53;17.10;99.90
51021;DHT22;38907;45.562;8.856;2023-05-29T06:51:55;16.90;99.90
51021;DHT22;38907;45.562;8.856;2023-05-29T06:56:57;16.90;99.90
51021;DHT22;38907;45.562;8.856;2023-05-29T07:02:00;16.90;99.90
51021;DHT22;38907;45.562;8.856;2023-05-29T07:07:02;17.10;99.90
51021;DHT22;38907;45.562;8.856;2023-05-29T07:12:05;17.10;99.90
51021;DHT22;38907;45.562;8.856;2023-05-29T07:17:08;17.10;99.90
51021;DHT22;38907;45.562;8.856;2023-05-29T07:22:10;17.10;99.90
51021;DHT22;38907;45.562;8.856;2023-05-29T07:27:12;16.90;99.90
51021;DHT22;38907;45.562;8.856;2023-05-29T07:32:15;16.90;99.90
51021;DHT22;38907;45.562;8.856;2023-05-29T07:37:17;17.00;99.90
51021;DHT22;38907;45.562;8.856;2023-05-29T07:42:19;17.00;99.90
51021;DHT22;38907;45.562;8.856;2023-05-29T07:47:23;17.00;99.90
51021;DHT22;38907;45.562;8.856;2023-05-29T07:52:24;17.00;99.90
51021;DHT22;38907;45.562;8.856;2023-05-29T07:57:26;17.10;99.90
51021;DHT22;38907;45.562;8.856;2023-05-29T08:02:30;17.30;99.90
51021;DHT22;38907;45.562;8.856;2023-05-29T08:07:31;17.40;99.90
51021;DHT22;38907;45.562;8.856;2023-05-29T08:12:33;17.80;99.90
51021;DHT22;38907;45.562;8.856;2023-05-29T08:17:37;17.90;99.90
51021;DHT22;38907;45.562;8.856;2023-05-29T08:22:39;18.10;99.90
51021;DHT22;38907;45.562;8.856;2023-05-29T08:27:41;18.30;99.90
51021;DHT22;38907;45.562;8.856;2023-05-29T08:32:44;18.40;99.90
51021;DHT22;38907;45.562;8.856;2023-05-29T08:37:46;18.60;99.90
51021;DHT22;38907;45.562;8.856;2023-05-29T08:42:53;19.00;99.90
51021;DHT22;38907;45.562;8.856;2023-05-29T08:48:00;19.20;99.90
51021;DHT22;38907;45.562;8.856;2023-05-29T08:53:03;19.40;99.90
51021;DHT22;38907;45.562;8.856;2023-05-29T08:58:05;19.80;99.90
51021;DHT22;38907;45.562;8.856;2023-05-29T09:03:08;19.90;99.90
51021;DHT22;38907;45.562;8.856;2023-05-29T09:08:12;19.90;99.90
51021;DHT22;38907;45.562;8.856;2023-05-29T09:13:14;20.00;99.90
51021;DHT22;38907;45.562;8.856;2023-05-29T09:18:18;20.10;99.90
51021;DHT22;38907;45.562;8.856;2023-05-29T09:23:20;20.20;99.90
51021;DHT22;38907;45.562;8.856;2023-05-29T09:28:22;20.30;99.90
51021;DHT22;38907;45.562;8.856;2023-05-29T09:33:29;20.30;99.90
51021;DHT22;38907;45.562;8.856;2023-05-29T09:38:31;20.30;99.90
51021;DHT22;38907;45.562;8.856;2023-05-29T09:43:34;20.30;99.90
51021;DHT22;38907;45.562;8.856;2023-05-29T09:48:37;20.20;99.90
51021;DHT22;38907;45.562;8.856;2023-05-29T09:53:40;20.30;99.90
51021;DHT22;38907;45.562;8.856;2023-05-29T09:58:43;20.30;99.90
51021;DHT22;38907;45.562;8.856;2023-05-29T10:03:48;20.30;99.90
51021;DHT22;38907;45.562;8.856;2023-05-29T10:08:50;20.50;99.90
51021;DHT22;38907;45.562;8.856;2023-05-29T10:13:54;20.70;99.90
51021;DHT22;38907;45.562;8.856;2023-05-29T10:19:01;21.20;99.90
51021;DHT22;38907;45.562;8.856;2023-05-29T10:24:07;21.40;99.90
51021;DHT22;38907;45.562;8.856;2023-05-29T10:29:15;21.70;99.90
51021;DHT22;38907;45.562;8.856;2023-05-29T10:34:26;21.70;99.90
51021;DHT22;38907;45.562;8.856;2023-05-29T10:39:31;21.70;99.90
51021;DHT22;38907;45.562;8.856;2023-05-29T10:44:40;22.00;99.90
51021;DHT22;38907;45.562;8.856;2023-05-29T10:49:50;22.10;99.90
51021;DHT22;38907;45.562;8.856;2023-05-29T10:54:54;22.20;99.90
51021;DHT22;38907;45.562;8.856;2023-05-29T11:00:03;22.30;99.90
51021;DHT22;38907;45.562;8.856;2023-05-29T11:05:22;22.40;99.90
51021;DHT22;38907;45.562;8.856;2023-05-29T11:10:44;22.70;99.90
51021;DHT22;38907;45.562;8.856;2023-05-29T11:15:46;22.80;99.90
51021;DHT22;38907;45.562;8.856;2023-05-29T11:20:52;23.00;99.90
51021;DHT22;38907;45.562;8.856;2023-05-29T11:25:59;23.00;99.90
51021;DHT22;38907;45.562;8.856;2023-05-29T11:31:02;22.90;99.90
51021;DHT22;38907;45.562;8.856;2023-05-29T11:36:11;23.10;99.90
51021;DHT22;38907;45.562;8.856;2023-05-29T11:41:13;23.10;99.90
51021;DHT22;38907;45.562;8.856;2023-05-29T11:46:18;23.00;99.90
51021;DHT22;38907;45.562;8.856;2023-05-29T11:51:22;23.00;99.90
51021;DHT22;38907;45.562;8.856;2023-05-29T11:56:24;23.30;99.90
51021;DHT22;38907;45.562;8.856;2023-05-29T12:01:27;23.30;99.90
51021;DHT22;38907;45.562;8.856;2023-05-29T12:06:34;23.50;99.90
51021;DHT22;38907;45.562;8.856;2023-05-29T12:11:38;23.50;99.90
51021;DHT22;38907;45.562;8.856;2023-05-29T12:16:40;23.50;99.90
51021;DHT22;38907;45.562;8.856;2023-05-29T12:21:44;23.60;99.90
51021;DHT22;38907;45.562;8.856;2023-05-29T12:26:46;23.70;99.90
51021;DHT22;38907;45.562;8.856;2023-05-29T12:31:57;23.60;99.90
51021;DHT22;38907;45.562;8.856;2023-05-29T12:37:06;23.90;99.90
51021;DHT22;38907;45.562;8.856;2023-05-29T12:42:11;23.90;99.90
51021;DHT22;38907;45.562;8.856;2023-05-29T12:47:14;23.90;99.90
51021;DHT22;38907;45.562;8.856;2023-05-29T12:52:20;24.00;99.90
51021;DHT22;38907;45.562;8.856;2023-05-29T12:57:22;24.00;99.90
51021;DHT22;38907;45.562;8.856;2023-05-29T13:02:24;24.00;99.90
51021;DHT22;38907;45.562;8.856;2023-05-29T13:07:27;24.20;99.90
51021;DHT22;38907;45.562;8.856;2023-05-29T13:12:29;24.20;99.90
51021;DHT22;38907;45.562;8.856;2023-05-29T13:17:31;24.30;99.90
51021;DHT22;38907;45.562;8.856;2023-05-29T13:22:34;24.30;99.90
51021;DHT22;38907;45.562;8.856;2023-05-29T13:27:37;24.20;99.90
51021;DHT22;38907;45.562;8.856;2023-05-29T13:32:40;24.30;99.90
51021;DHT22;38907;45.562;8.856;2023-05-29T13:37:43;24.50;99.90
51021;DHT22;38907;45.562;8.856;2023-05-29T13:42:45;24.60;99.90
51021;DHT22;38907;45.562;8.856;2023-05-29T13:47:48;24.70;99.90
51021;DHT22;38907;45.562;8.856;2023-05-29T13:52:51;24.60;99.90
51021;DHT22;38907;45.562;8.856;2023-05-29T13:57:53;24.60;99.90
51021;DHT22;38907;45.562;8.856;2023-05-29T14:02:55;24.80;99.90
51021;DHT22;38907;45.562;8.856;2023-05-29T14:07:58;24.90;99.90
51021;DHT22;38907;45.562;8.856;2023-05-29T14:13:01;24.90;99.90
51021;DHT22;38907;45.562;8.856;2023-05-29T14:18:02;24.90;99.90
51021;DHT22;38907;45.562;8.856;2023-05-29T14:23:07;24.80;99.90
51021;DHT22;38907;45.562;8.856;2023-05-29T14:28:14;24.90;99.90
51021;DHT22;38907;45.562;8.856;2023-05-29T14:33:16;25.00;99.90
51021;DHT22;38907;45.562;8.856;2023-05-29T14:38:19;25.10;99.90
51021;DHT22;38907;45.562;8.856;2023-05-29T14:43:21;25.10;99.90
51021;DHT22;38907;45.562;8.856;2023-05-29T14:48:23;25.10;99.90
51021;DHT22;38907;45.562;8.856;2023-05-29T14:53:26;25.10;99.90
51021;DHT22;38907;45.562;8.856;2023-05-29T14:58:28;25.40;99.90
51021;DHT22;38907;45.562;8.856;2023-05-29T15:03:30;25.40;99.90
51021;DHT22;38907;45.562;8.856;2023-05-29T15:08:33;25.50;99.90
51021;DHT22;38907;45.562;8.856;2023-05-29T15:13:35;25.60;99.90
51021;DHT22;38907;45.562;8.856;2023-05-29T15:18:37;25.60;99.90
51021;DHT22;38907;45.562;8.856;2023-05-29T15:23:40;25.80;99.90
51021;DHT22;38907;45.562;8.856;2023-05-29T15:28:44;25.80;99.90
51021;DHT22;38907;45.562;8.856;2023-05-29T15:33:45;25.80;99.90
51021;DHT22;38907;45.562;8.856;2023-05-29T15:38:49;25.90;99.90
51021;DHT22;38907;45.562;8.856;2023-05-29T15:43:51;25.90;99.90
51021;DHT22;38907;45.562;8.856;2023-05-29T15:48:53;25.90;99.90
51021;DHT22;38907;45.562;8.856;2023-05-29T15:53:56;26.00;99.90
51021;DHT22;38907;45.562;8.856;2023-05-29T15:58:58;26.10;98.80
51021;DHT22;38907;45.562;8.856;2023-05-29T16:04:00;26.10;99.90
51021;DHT22;38907;45.562;8.856;2023-05-29T16:09:04;26.10;99.90
51021;DHT22;38907;45.562;8.856;2023-05-29T16:14:07;26.10;99.90
51021;DHT22;38907;45.562;8.856;2023-05-29T16:19:09;26.00;99.90
51021;DHT22;38907;45.562;8.856;2023-05-29T16:24:12;26.20;99.90
51021;DHT22;38907;45.562;8.856;2023-05-29T16:29:14;25.90;99.90
51021;DHT22;38907;45.562;8.856;2023-05-29T16:34:16;26.00;99.90
51021;DHT22;38907;45.562;8.856;2023-05-29T16:39:19;26.00;99.90
51021;DHT22;38907;45.562;8.856;2023-05-29T16:44:22;25.80;99.90
51021;DHT22;38907;45.562;8.856;2023-05-29T16:49:24;25.70;99.90
51021;DHT22;38907;45.562;8.856;2023-05-29T16:54:27;25.60;99.90
51021;DHT22;38907;45.562;8.856;2023-05-29T16:59:31;25.40;99.90
51021;DHT22;38907;45.562;8.856;2023-05-29T17:04:33;25.20;99.90
51021;DHT22;38907;45.562;8.856;2023-05-29T17:09:37;25.20;99.90
51021;DHT22;38907;45.562;8.856;2023-05-29T17:14:39;25.00;99.90
51021;DHT22;38907;45.562;8.856;2023-05-29T17:19:41;25.00;99.90
51021;DHT22;38907;45.562;8.856;2023-05-29T17:24:44;25.00;99.90
51021;DHT22;38907;45.562;8.856;2023-05-29T17:29:46;24.90;99.90
51021;DHT22;38907;45.562;8.856;2023-05-29T17:34:48;24.80;99.90
51021;DHT22;38907;45.562;8.856;2023-05-29T17:39:53;24.80;99.90
51021;DHT22;38907;45.562;8.856;2023-05-29T17:44:55;24.70;99.90
51021;DHT22;38907;45.562;8.856;2023-05-29T17:49:57;24.60;99.90
51021;DHT22;38907;45.562;8.856;2023-05-29T17:55:00;24.50;99.90
51021;DHT22;38907;45.562;8.856;2023-05-29T18:00:03;24.50;99.90
51021;DHT22;38907;45.562;8.856;2023-05-29T18:05:05;24.40;99.90
51021;DHT22;38907;45.562;8.856;2023-05-29T18:10:09;24.20;99.90
51021;DHT22;38907;45.562;8.856;2023-05-29T18:15:11;24.20;99.90
51021;DHT22;38907;45.562;8.856;2023-05-29T18:20:14;24.10;99.90
51021;DHT22;38907;45.562;8.856;2023-05-29T18:25:20;23.90;99.90
51021;DHT22;38907;45.562;8.856;2023-05-29T18:30:22;23.90;99.90
51021;DHT22;38907;45.562;8.856;2023-05-29T18:35:23;23.80;99.90
51021;DHT22;38907;45.562;8.856;2023-05-29T18:40:27;23.70;99.90
51021;DHT22;38907;45.562;8.856;2023-05-29T18:45:29;23.50;99.90
51021;DHT22;38907;45.562;8.856;2023-05-29T18:50:31;23.30;99.90
51021;DHT22;38907;45.562;8.856;2023-05-29T18:55:34;23.20;99.90
51021;DHT22;38907;45.562;8.856;2023-05-29T19:00:36;23.20;99.90
51021;DHT22;38907;45.562;8.856;2023-05-29T19:05:38;23.20;99.90
51021;DHT22;38907;45.562;8.856;2023-05-29T19:10:43;23.00;99.90
51021;DHT22;38907;45.562;8.856;2023-05-29T19:15:45;22.90;99.90
51021;DHT22;38907;45.562;8.856;2023-05-29T19:20:47;22.80;99.90
51021;DHT22;38907;45.562;8.856;2023-05-29T19:25:50;22.70;99.90
51021;DHT22;38907;45.562;8.856;2023-05-29T19:30:54;22.60;99.90
51021;DHT22;38907;45.562;8.856;2023-05-29T19:35:56;22.60;99.90
51021;DHT22;38907;45.562;8.856;2023-05-29T19:40:59;22.40;99.90
51021;DHT22;38907;45.562;8.856;2023-05-29T19:46:01;22.30;99.90
51021;DHT22;38907;45.562;8.856;2023-05-29T19:51:03;22.20;99.90
51021;DHT22;38907;45.562;8.856;2023-05-29T19:56:07;22.10;99.90
51021;DHT22;38907;45.562;8.856;2023-05-29T20:01:09;22.10;99.90
51021;DHT22;38907;45.562;8.856;2023-05-29T20:06:11;22.00;99.90
51021;DHT22;38907;45.562;8.856;2023-05-29T20:11:14;21.90;99.90
51021;DHT22;38907;45.562;8.856;2023-05-29T20:16:16;21.90;99.90
51021;DHT22;38907;45.562;8.856;2023-05-29T20:21:18;21.80;99.90
51021;DHT22;38907;45.562;8.856;2023-05-29T20:26:21;21.80;99.90
51021;DHT22;38907;45.562;8.856;2023-05-29T20:31:23;21.90;99.90
51021;DHT22;38907;45.562;8.856;2023-05-29T20:36:26;21.70;99.90
51021;DHT22;38907;45.562;8.856;2023-05-29T20:41:32;21.80;99.90
51021;DHT22;38907;45.562;8.856;2023-05-29T20:46:34;21.70;99.90
51021;DHT22;38907;45.562;8.856;2023-05-29T20:51:37;21.60;99.90
51021;DHT22;38907;45.562;8.856;2023-05-29T20:56:41;21.60;99.90
51021;DHT22;38907;45.562;8.856;2023-05-29T21:01:43;21.80;99.90
51021;DHT22;38907;45.562;8.856;2023-05-29T21:06:45;21.80;99.90
51021;DHT22;38907;45.562;8.856;2023-05-29T21:11:48;21.70;99.90
51021;DHT22;38907;45.562;8.856;2023-05-29T21:16:50;21.70;99.90
51021;DHT22;38907;45.562;8.856;2023-05-29T21:21:52;21.80;99.90
51021;DHT22;38907;45.562;8.856;2023-05-29T21:26:56;21.80;99.90
51021;DHT22;38907;45.562;8.856;2023-05-29T21:31:57;21.50;99.90
51021;DHT22;38907;45.562;8.856;2023-05-29T21:37:00;21.70;99.90
51021;DHT22;38907;45.562;8.856;2023-05-29T21:42:04;21.70;99.90
51021;DHT22;38907;45.562;8.856;2023-05-29T21:47:07;21.60;99.90
51021;DHT22;38907;45.562;8.856;2023-05-29T21:52:08;21.60;99.90
51021;DHT22;38907;45.562;8.856;2023-05-29T21:57:14;21.50;99.90
51021;DHT22;38907;45.562;8.856;2023-05-29T22:02:16;21.60;99.90
51021;DHT22;38907;45.562;8.856;2023-05-29T22:07:18;21.60;99.90
51021;DHT22;38907;45.562;8.856;2023-05-29T22:12:24;21.40;99.90
51021;DHT22;38907;45.562;8.856;2023-05-29T22:17:25;21.40;99.90
51021;DHT22;38907;45.562;8.856;2023-05-29T22:22:28;21.50;99.90
51021;DHT22;38907;45.562;8.856;2023-05-29T22:27:34;21.60;99.90
51021;DHT22;38907;45.562;8.856;2023-05-29T22:32:36;21.70;99.90
51021;DHT22;38907;45.562;8.856;2023-05-29T22:37:41;21.50;99.90
51021;DHT22;38907;45.562;8.856;2023-05-29T22:42:44;21.50;99.90
51021;DHT22;38907;45.562;8.856;2023-05-29T22:47:46;21.50;99.90
51021;DHT22;38907;45.562;8.856;2023-05-29T22:52:49;21.50;99.90
51021;DHT22;38907;45.562;8.856;2023-05-29T22:57:53;21.50;99.90
51021;DHT22;38907;45.562;8.856;2023-05-29T23:02:56;21.50;99.90
51021;DHT22;38907;45.562;8.856;2023-05-29T23:07:58;21.50;99.90
51021;DHT22;38907;45.562;8.856;2023-05-29T23:13:03;21.50;99.90
51021;DHT22;38907;45.562;8.856;2023-05-29T23:18:05;21.40;99.90
51021;DHT22;38907;45.562;8.856;2023-05-29T23:23:07;21.40;99.90
51021;DHT22;38907;45.562;8.856;2023-05-29T23:28:11;21.30;99.90
51021;DHT22;38907;45.562;8.856;2023-05-29T23:33:13;21.30;99.90
51021;DHT22;38907;45.562;8.856;2023-05-29T23:38:15;21.30;99.90
51021;DHT22;38907;45.562;8.856;2023-05-29T23:43:18;21.20;99.90
51021;DHT22;38907;45.562;8.856;2023-05-29T23:48:20;21.20;99.90
51021;DHT22;38907;45.562;8.856;2023-05-29T23:53:22;21.00;99.90
51021;DHT22;38907;45.562;8.856;2023-05-29T23:58:25;21.00;99.90
